sensor_id;sensor_type;location;lat;lon;timestamp;pressure;altitude;pressure_sealevel;temperature;humidity
31403;BME280;18039;52.188;21.024;2023-02-07T00:01:32;80267.97;;;-141.45;92.50
31403;BME280;18039;52.188;21.024;2023-02-07T00:03:59;80267.97;;;-141.45;92.91
31403;BME280;18039;52.188;21.024;2023-02-07T00:06:30;80263.91;;;-141.45;93.64
31403;BME280;18039;52.188;21.024;2023-02-07T00:09:01;80261.88;;;-141.45;93.18
31403;BME280;18039;52.188;21.024;2023-02-07T00:11:29;80263.91;;;-141.45;92.43
31403;BME280;18039;52.188;21.024;2023-02-07T00:13:57;80267.97;;;-141.45;92.72
31403;BME280;18039;52.188;21.024;2023-02-07T00:16:26;80255.78;;;-141.45;92.75
31403;BME280;18039;52.188;21.024;2023-02-07T00:18:54;80251.72;;;-141.45;92.84
31403;BME280;18039;52.188;21.024;2023-02-07T00:21:24;80253.75;;;-141.45;92.93
31403;BME280;18039;52.188;21.024;2023-02-07T00:23:52;80247.69;;;-141.45;93.35
31403;BME280;18039;52.188;21.024;2023-02-07T00:26:21;80243.63;;;-141.45;93.86
31403;BME280;18039;52.188;21.024;2023-02-07T00:28:50;80237.53;;;-141.45;93.57
31403;BME280;18039;52.188;21.024;2023-02-07T00:31:23;80235.50;;;-141.45;93.44
31403;BME280;18039;52.188;21.024;2023-02-07T00:33:53;80239.56;;;-141.45;93.97
31403;BME280;18039;52.188;21.024;2023-02-07T00:36:22;80237.53;;;-141.45;94.14
31403;BME280;18039;52.188;21.024;2023-02-07T00:38:50;80231.44;;;-141.45;94.27
31403;BME280;18039;52.188;21.024;2023-02-07T00:41:17;80223.31;;;-141.45;94.44
31403;BME280;18039;52.188;21.024;2023-02-07T00:43:46;80217.22;;;-141.45;94.58
31403;BME280;18039;52.188;21.024;2023-02-07T00:46:14;80219.25;;;-141.45;94.43
31403;BME280;18039;52.188;21.024;2023-02-07T00:48:42;80215.22;;;-141.45;94.66
31403;BME280;18039;52.188;21.024;2023-02-07T00:51:11;80223.31;;;-141.45;94.91
31403;BME280;18039;52.188;21.024;2023-02-07T00:53:39;80215.22;;;-141.45;94.87
31403;BME280;18039;52.188;21.024;2023-02-07T00:56:07;80207.09;;;-141.45;94.74
31403;BME280;18039;52.188;21.024;2023-02-07T00:58:35;80196.94;;;-141.45;95.15
31403;BME280;18039;52.188;21.024;2023-02-07T01:01:03;80178.69;;;-141.45;94.31
31403;BME280;18039;52.188;21.024;2023-02-07T01:03:31;80182.75;;;-141.45;94.47
31403;BME280;18039;52.188;21.024;2023-02-07T01:05:59;80178.69;;;-141.45;94.30
31403;BME280;18039;52.188;21.024;2023-02-07T01:08:26;80188.81;;;-141.45;94.19
31403;BME280;18039;52.188;21.024;2023-02-07T01:10:54;80203.03;;;-141.45;94.59
31403;BME280;18039;52.188;21.024;2023-02-07T01:13:21;80194.91;;;-141.45;94.71
31403;BME280;18039;52.188;21.024;2023-02-07T01:15:48;80198.97;;;-141.45;94.90
31403;BME280;18039;52.188;21.024;2023-02-07T01:18:16;80198.97;;;-141.45;95.57
31403;BME280;18039;52.188;21.024;2023-02-07T01:20:43;80198.97;;;-141.45;95.48
31403;BME280;18039;52.188;21.024;2023-02-07T01:23:11;80188.81;;;-141.45;95.16
31403;BME280;18039;52.188;21.024;2023-02-07T01:25:39;80180.72;;;-141.45;95.69
31403;BME280;18039;52.188;21.024;2023-02-07T01:28:07;80170.56;;;-141.45;95.01
31403;BME280;18039;52.188;21.024;2023-02-07T01:30:34;80188.81;;;-141.45;95.16
31403;BME280;18039;52.188;21.024;2023-02-07T01:33:01;80188.81;;;-141.45;95.07
31403;BME280;18039;52.188;21.024;2023-02-07T01:35:29;80190.84;;;-141.45;95.04
31403;BME280;18039;52.188;21.024;2023-02-07T01:37:56;80174.63;;;-141.45;95.04
31403;BME280;18039;52.188;21.024;2023-02-07T01:40:29;80166.50;;;-141.45;94.81
31403;BME280;18039;52.188;21.024;2023-02-07T01:42:57;80182.75;;;-141.45;95.46
31403;BME280;18039;52.188;21.024;2023-02-07T01:48:01;80178.69;;;-141.45;94.74
31403;BME280;18039;52.188;21.024;2023-02-07T01:50:30;80172.59;;;-141.45;95.05
31403;BME280;18039;52.188;21.024;2023-02-07T01:52:59;80170.56;;;-141.45;95.01
31403;BME280;18039;52.188;21.024;2023-02-07T01:55:31;80162.44;;;-141.45;95.15
31403;BME280;18039;52.188;21.024;2023-02-07T01:58:02;80162.44;;;-141.45;95.48
31403;BME280;18039;52.188;21.024;2023-02-07T02:00:30;80170.56;;;-141.45;95.47
31403;BME280;18039;52.188;21.024;2023-02-07T02:02:57;80162.44;;;-141.45;95.74
31403;BME280;18039;52.188;21.024;2023-02-07T02:05:28;80170.56;;;-141.45;95.91
31403;BME280;18039;52.188;21.024;2023-02-07T02:07:56;80174.63;;;-141.45;96.10
31403;BME280;18039;52.188;21.024;2023-02-07T02:10:39;80160.41;;;-141.45;95.91
31403;BME280;18039;52.188;21.024;2023-02-07T02:16:40;80150.28;;;-141.45;96.25
31403;BME280;18039;52.188;21.024;2023-02-07T02:19:18;80152.31;;;-141.45;96.21
31403;BME280;18039;52.188;21.024;2023-02-07T02:31:33;80142.16;;;-141.45;96.39
31403;BME280;18039;52.188;21.024;2023-02-07T02:42:18;80121.88;;;-141.45;95.81
31403;BME280;18039;52.188;21.024;2023-02-07T02:44:58;80129.97;;;-141.45;96.21
31403;BME280;18039;52.188;21.024;2023-02-07T02:47:28;80121.88;;;-141.45;96.43
31403;BME280;18039;52.188;21.024;2023-02-07T02:49:57;80121.88;;;-141.45;96.42
31403;BME280;18039;52.188;21.024;2023-02-07T02:52:26;80117.81;;;-141.45;96.32
31403;BME280;18039;52.188;21.024;2023-02-07T02:55:16;80113.75;;;-141.45;96.56
31403;BME280;18039;52.188;21.024;2023-02-07T02:58:04;80129.97;;;-141.45;96.34
31403;BME280;18039;52.188;21.024;2023-02-07T03:00:50;80123.88;;;-141.45;96.92
31403;BME280;18039;52.188;21.024;2023-02-07T03:03:49;80121.88;;;-141.45;96.89
31403;BME280;18039;52.188;21.024;2023-02-07T03:17:29;80113.75;;;-141.45;96.34
31403;BME280;18039;52.188;21.024;2023-02-07T03:20:16;80097.50;;;-141.45;96.83
31403;BME280;18039;52.188;21.024;2023-02-07T03:22:46;80091.44;;;-141.45;96.84
31403;BME280;18039;52.188;21.024;2023-02-07T03:25:14;80089.41;;;-141.45;97.05
31403;BME280;18039;52.188;21.024;2023-02-07T03:27:45;80087.38;;;-141.45;97.35
31403;BME280;18039;52.188;21.024;2023-02-07T03:30:15;80083.31;;;-141.45;97.38
31403;BME280;18039;52.188;21.024;2023-02-07T03:32:49;80077.22;;;-141.45;97.64
31403;BME280;18039;52.188;21.024;2023-02-07T03:35:28;80073.16;;;-141.45;97.83
31403;BME280;18039;52.188;21.024;2023-02-07T03:37:59;80065.03;;;-141.45;97.82
31403;BME280;18039;52.188;21.024;2023-02-07T03:40:31;80061.00;;;-141.45;97.35
31403;BME280;18039;52.188;21.024;2023-02-07T03:43:05;80058.97;;;-141.45;97.84
31403;BME280;18039;52.188;21.024;2023-02-07T03:45:34;80052.88;;;-141.45;97.73
31403;BME280;18039;52.188;21.024;2023-02-07T03:48:02;80056.94;;;-141.45;97.62
31403;BME280;18039;52.188;21.024;2023-02-07T03:50:29;80040.69;;;-141.45;97.76
31403;BME280;18039;52.188;21.024;2023-02-07T03:52:56;80032.59;;;-141.45;97.83
31403;BME280;18039;52.188;21.024;2023-02-07T03:55:23;80065.03;;;-141.45;98.07
31403;BME280;18039;52.188;21.024;2023-02-07T03:57:50;80040.69;;;-141.45;98.47
31403;BME280;18039;52.188;21.024;2023-02-07T04:00:17;80044.75;;;-141.45;98.52
31403;BME280;18039;52.188;21.024;2023-02-07T04:02:45;80032.59;;;-141.45;98.01
31403;BME280;18039;52.188;21.024;2023-02-07T04:05:12;80036.63;;;-141.45;98.30
31403;BME280;18039;52.188;21.024;2023-02-07T04:07:39;80030.56;;;-141.45;97.97
31403;BME280;18039;52.188;21.024;2023-02-07T04:10:08;80028.53;;;-141.45;98.31
31403;BME280;18039;52.188;21.024;2023-02-07T04:12:36;80012.28;;;-141.45;98.50
31403;BME280;18039;52.188;21.024;2023-02-07T04:15:04;80014.31;;;-141.45;98.12
31403;BME280;18039;52.188;21.024;2023-02-07T04:17:32;80008.22;;;-141.45;98.15
31403;BME280;18039;52.188;21.024;2023-02-07T04:20:00;80010.25;;;-141.45;98.26
31403;BME280;18039;52.188;21.024;2023-02-07T04:22:28;80000.13;;;-141.45;97.71
31403;BME280;18039;52.188;21.024;2023-02-07T04:24:55;80004.16;;;-141.45;98.17
31403;BME280;18039;52.188;21.024;2023-02-07T04:27:23;79992.00;;;-141.45;97.98
31403;BME280;18039;52.188;21.024;2023-02-07T04:29:50;79987.94;;;-141.45;98.16
31403;BME280;18039;52.188;21.024;2023-02-07T04:32:17;79992.00;;;-141.45;98.34
31403;BME280;18039;52.188;21.024;2023-02-07T04:34:44;79985.91;;;-141.45;98.46
31403;BME280;18039;52.188;21.024;2023-02-07T04:37:12;79987.94;;;-141.45;97.76
31403;BME280;18039;52.188;21.024;2023-02-07T04:39:39;79983.88;;;-141.45;98.10
31403;BME280;18039;52.188;21.024;2023-02-07T04:42:06;79987.94;;;-141.45;97.78
31403;BME280;18039;52.188;21.024;2023-02-07T04:44:33;79983.88;;;-141.45;97.68
31403;BME280;18039;52.188;21.024;2023-02-07T04:47:00;79983.88;;;-141.45;97.57
31403;BME280;18039;52.188;21.024;2023-02-07T04:49:28;79981.84;;;-141.45;97.50
31403;BME280;18039;52.188;21.024;2023-02-07T04:51:59;79979.81;;;-141.45;97.95
31403;BME280;18039;52.188;21.024;2023-02-07T04:54:26;79975.75;;;-141.45;97.88
31403;BME280;18039;52.188;21.024;2023-02-07T04:56:53;79979.81;;;-141.45;98.16
31403;BME280;18039;52.188;21.024;2023-02-07T04:59:20;79971.72;;;-141.45;97.76
31403;BME280;18039;52.188;21.024;2023-02-07T05:01:47;79963.59;;;-141.45;97.75
31403;BME280;18039;52.188;21.024;2023-02-07T05:04:14;79973.72;;;-141.45;97.44
31403;BME280;18039;52.188;21.024;2023-02-07T05:06:42;79979.81;;;-141.45;97.63
31403;BME280;18039;52.188;21.024;2023-02-07T05:09:09;79971.72;;;-141.45;97.35
31403;BME280;18039;52.188;21.024;2023-02-07T05:11:36;79971.72;;;-141.45;97.76
31403;BME280;18039;52.188;21.024;2023-02-07T05:14:03;79971.72;;;-141.45;97.57
31403;BME280;18039;52.188;21.024;2023-02-07T05:16:30;79967.66;;;-141.45;97.71
31403;BME280;18039;52.188;21.024;2023-02-07T05:18:57;79955.47;;;-141.45;97.47
31403;BME280;18039;52.188;21.024;2023-02-07T05:21:24;79963.59;;;-141.45;97.57
31403;BME280;18039;52.188;21.024;2023-02-07T05:23:51;79943.31;;;-141.45;97.49
31403;BME280;18039;52.188;21.024;2023-02-07T05:26:19;79947.34;;;-141.45;96.94
31403;BME280;18039;52.188;21.024;2023-02-07T05:28:46;79951.41;;;-141.45;96.84
31403;BME280;18039;52.188;21.024;2023-02-07T05:31:13;79939.25;;;-141.45;96.92
31403;BME280;18039;52.188;21.024;2023-02-07T05:33:40;79935.19;;;-141.45;96.87
31403;BME280;18039;52.188;21.024;2023-02-07T05:36:07;79931.13;;;-141.45;97.03
31403;BME280;18039;52.188;21.024;2023-02-07T05:38:35;79927.06;;;-141.45;97.00
31403;BME280;18039;52.188;21.024;2023-02-07T05:41:02;79923.00;;;-141.45;96.26
31403;BME280;18039;52.188;21.024;2023-02-07T05:43:29;79914.88;;;-141.45;96.02
31403;BME280;18039;52.188;21.024;2023-02-07T05:45:57;79906.78;;;-141.45;96.23
31403;BME280;18039;52.188;21.024;2023-02-07T05:48:24;79906.78;;;-141.45;96.19
31403;BME280;18039;52.188;21.024;2023-02-07T05:50:52;79910.84;;;-141.45;96.00
31403;BME280;18039;52.188;21.024;2023-02-07T05:53:19;79906.78;;;-141.45;95.89
31403;BME280;18039;52.188;21.024;2023-02-07T05:55:50;79902.72;;;-141.45;95.82
31403;BME280;18039;52.188;21.024;2023-02-07T05:58:17;79902.72;;;-141.45;95.28
31403;BME280;18039;52.188;21.024;2023-02-07T06:00:44;79902.72;;;-141.45;95.88
31403;BME280;18039;52.188;21.024;2023-02-07T06:03:11;79910.84;;;-141.45;95.55
31403;BME280;18039;52.188;21.024;2023-02-07T06:05:38;79898.66;;;-141.45;96.05
31403;BME280;18039;52.188;21.024;2023-02-07T06:08:06;79894.59;;;-141.45;95.35
31403;BME280;18039;52.188;21.024;2023-02-07T06:10:33;79890.53;;;-141.45;95.21
31403;BME280;18039;52.188;21.024;2023-02-07T06:13:00;79890.53;;;-141.45;95.70
31403;BME280;18039;52.188;21.024;2023-02-07T06:15:27;79866.19;;;-141.45;94.82
31403;BME280;18039;52.188;21.024;2023-02-07T06:18:13;79860.09;;;-141.45;94.17
31403;BME280;18039;52.188;21.024;2023-02-07T06:20:40;79858.06;;;-141.45;94.03
31403;BME280;18039;52.188;21.024;2023-02-07T06:23:07;79858.06;;;-141.45;94.27
31403;BME280;18039;52.188;21.024;2023-02-07T06:25:34;79862.13;;;-141.45;94.45
31403;BME280;18039;52.188;21.024;2023-02-07T06:28:01;79874.31;;;-141.45;94.03
31403;BME280;18039;52.188;21.024;2023-02-07T06:30:28;79862.13;;;-141.45;94.39
31403;BME280;18039;52.188;21.024;2023-02-07T06:32:55;79878.38;;;-141.45;94.05
31403;BME280;18039;52.188;21.024;2023-02-07T06:35:24;79864.16;;;-141.45;94.28
31403;BME280;18039;52.188;21.024;2023-02-07T06:37:51;79854.03;;;-141.45;94.13
31403;BME280;18039;52.188;21.024;2023-02-07T06:40:21;79849.97;;;-141.45;93.95
31403;BME280;18039;52.188;21.024;2023-02-07T06:42:48;79837.78;;;-141.45;93.25
31403;BME280;18039;52.188;21.024;2023-02-07T06:45:15;79849.97;;;-141.45;93.76
31403;BME280;18039;52.188;21.024;2023-02-07T06:47:42;79841.84;;;-141.45;94.02
31403;BME280;18039;52.188;21.024;2023-02-07T06:50:09;79833.72;;;-141.45;93.07
31403;BME280;18039;52.188;21.024;2023-02-07T06:52:36;79845.91;;;-141.45;93.48
31403;BME280;18039;52.188;21.024;2023-02-07T06:55:04;79833.72;;;-141.45;92.96
31403;BME280;18039;52.188;21.024;2023-02-07T06:57:31;79829.66;;;-141.45;92.36
31403;BME280;18039;52.188;21.024;2023-02-07T06:59:58;79825.63;;;-141.45;92.01
31403;BME280;18039;52.188;21.024;2023-02-07T07:02:25;79841.84;;;-141.45;92.36
31403;BME280;18039;52.188;21.024;2023-02-07T07:04:52;79833.72;;;-141.45;92.94
31403;BME280;18039;52.188;21.024;2023-02-07T07:07:19;79817.50;;;-141.45;92.34
31403;BME280;18039;52.188;21.024;2023-02-07T07:09:47;79813.44;;;-141.45;91.93
31403;BME280;18039;52.188;21.024;2023-02-07T07:12:14;79825.63;;;-141.45;91.79
31403;BME280;18039;52.188;21.024;2023-02-07T07:14:41;79817.50;;;-141.45;91.71
31403;BME280;18039;52.188;21.024;2023-02-07T07:17:08;79813.44;;;-141.45;91.70
31403;BME280;18039;52.188;21.024;2023-02-07T07:19:35;79813.44;;;-141.45;91.73
31403;BME280;18039;52.188;21.024;2023-02-07T07:22:02;79815.47;;;-141.45;91.58
31403;BME280;18039;52.188;21.024;2023-02-07T07:24:30;79809.38;;;-141.45;91.00
31403;BME280;18039;52.188;21.024;2023-02-07T07:26:56;79809.38;;;-141.45;91.10
31403;BME280;18039;52.188;21.024;2023-02-07T07:29:24;79805.31;;;-141.45;91.38
31403;BME280;18039;52.188;21.024;2023-02-07T07:31:51;79807.34;;;-141.45;91.44
31403;BME280;18039;52.188;21.024;2023-02-07T07:34:18;79807.34;;;-141.45;91.58
31403;BME280;18039;52.188;21.024;2023-02-07T07:36:47;79805.31;;;-141.45;91.73
31403;BME280;18039;52.188;21.024;2023-02-07T07:39:14;79797.22;;;-141.45;91.76
31403;BME280;18039;52.188;21.024;2023-02-07T07:41:42;79789.09;;;-141.45;91.60
31403;BME280;18039;52.188;21.024;2023-02-07T07:44:17;79793.16;;;-141.45;90.94
31403;BME280;18039;52.188;21.024;2023-02-07T07:46:44;79791.13;;;-141.45;90.91
31403;BME280;18039;52.188;21.024;2023-02-07T07:49:12;79793.16;;;-141.45;91.33
31403;BME280;18039;52.188;21.024;2023-02-07T07:51:38;79791.13;;;-141.45;91.33
31403;BME280;18039;52.188;21.024;2023-02-07T07:54:06;79785.03;;;-141.45;90.52
31403;BME280;18039;52.188;21.024;2023-02-07T07:56:33;79785.03;;;-141.45;89.91
31403;BME280;18039;52.188;21.024;2023-02-07T07:59:01;79787.06;;;-141.45;89.96
31403;BME280;18039;52.188;21.024;2023-02-07T08:01:34;79791.13;;;-141.45;89.61
31403;BME280;18039;52.188;21.024;2023-02-07T08:04:01;79793.16;;;-141.45;90.01
31403;BME280;18039;52.188;21.024;2023-02-07T08:06:30;79791.13;;;-141.45;89.96
31403;BME280;18039;52.188;21.024;2023-02-07T08:08:57;79776.91;;;-141.45;89.98
31403;BME280;18039;52.188;21.024;2023-02-07T08:11:24;79776.91;;;-141.45;88.67
31403;BME280;18039;52.188;21.024;2023-02-07T08:13:51;79785.03;;;-141.45;88.16
31403;BME280;18039;52.188;21.024;2023-02-07T08:16:18;79793.16;;;-141.45;89.20
31403;BME280;18039;52.188;21.024;2023-02-07T08:18:46;79785.03;;;-141.45;88.59
31403;BME280;18039;52.188;21.024;2023-02-07T08:21:13;79797.22;;;-141.45;88.85
31403;BME280;18039;52.188;21.024;2023-02-07T08:23:40;79793.16;;;-141.45;89.06
31403;BME280;18039;52.188;21.024;2023-02-07T08:26:07;79789.09;;;-141.45;88.80
31403;BME280;18039;52.188;21.024;2023-02-07T08:28:35;79776.91;;;-141.45;88.27
31403;BME280;18039;52.188;21.024;2023-02-07T08:31:03;79768.81;;;-141.45;88.12
31403;BME280;18039;52.188;21.024;2023-02-07T08:33:31;79764.75;;;-141.45;87.76
31403;BME280;18039;52.188;21.024;2023-02-07T08:35:59;79764.75;;;-141.45;87.69
31403;BME280;18039;52.188;21.024;2023-02-07T08:38:26;79764.75;;;-141.45;87.86
31403;BME280;18039;52.188;21.024;2023-02-07T08:40:53;79764.75;;;-141.45;87.66
31403;BME280;18039;52.188;21.024;2023-02-07T08:43:20;79768.81;;;-141.45;88.37
31403;BME280;18039;52.188;21.024;2023-02-07T08:45:48;79760.69;;;-141.45;88.06
31403;BME280;18039;52.188;21.024;2023-02-07T08:48:16;79760.69;;;-141.45;88.17
31403;BME280;18039;52.188;21.024;2023-02-07T08:50:44;79752.56;;;-141.45;87.64
31403;BME280;18039;52.188;21.024;2023-02-07T08:53:11;79752.56;;;-141.45;87.21
31403;BME280;18039;52.188;21.024;2023-02-07T08:55:39;79748.50;;;-141.45;87.32
31403;BME280;18039;52.188;21.024;2023-02-07T08:58:07;79754.59;;;-141.45;87.38
31403;BME280;18039;52.188;21.024;2023-02-07T09:00:35;79748.50;;;-141.45;87.51
31403;BME280;18039;52.188;21.024;2023-02-07T09:03:03;79756.63;;;-141.45;86.64
31403;BME280;18039;52.188;21.024;2023-02-07T09:05:30;79740.41;;;-141.45;86.50
31403;BME280;18039;52.188;21.024;2023-02-07T09:08:01;79746.47;;;-141.45;86.28
31403;BME280;18039;52.188;21.024;2023-02-07T09:10:29;79744.44;;;-141.45;86.86
31403;BME280;18039;52.188;21.024;2023-02-07T09:12:56;79744.44;;;-141.45;87.14
31403;BME280;18039;52.188;21.024;2023-02-07T09:15:23;79732.28;;;-141.45;86.22
31403;BME280;18039;52.188;21.024;2023-02-07T09:17:51;79728.22;;;-141.45;86.22
31403;BME280;18039;52.188;21.024;2023-02-07T09:20:18;79736.34;;;-141.45;86.32
31403;BME280;18039;52.188;21.024;2023-02-07T09:22:45;79732.28;;;-141.45;86.56
31403;BME280;18039;52.188;21.024;2023-02-07T09:25:31;79732.28;;;-141.45;86.37
31403;BME280;18039;52.188;21.024;2023-02-07T09:27:58;79724.16;;;-141.45;86.04
31403;BME280;18039;52.188;21.024;2023-02-07T09:30:25;79726.19;;;-141.45;85.97
31403;BME280;18039;52.188;21.024;2023-02-07T09:32:53;79720.09;;;-141.45;86.60
31403;BME280;18039;52.188;21.024;2023-02-07T09:35:20;79712.00;;;-141.45;86.39
31403;BME280;18039;52.188;21.024;2023-02-07T09:37:47;79732.28;;;-141.45;86.82
31403;BME280;18039;52.188;21.024;2023-02-07T09:40:17;79707.94;;;-141.45;87.29
31403;BME280;18039;52.188;21.024;2023-02-07T09:45:28;79689.66;;;-141.45;86.21
31403;BME280;18039;52.188;21.024;2023-02-07T09:48:06;79679.53;;;-141.45;86.84
31403;BME280;18039;52.188;21.024;2023-02-07T09:50:52;79671.41;;;-141.45;87.34
31403;BME280;18039;52.188;21.024;2023-02-07T09:56:27;79663.28;;;-141.45;86.85
31403;BME280;18039;52.188;21.024;2023-02-07T10:01:47;79655.19;;;-141.45;86.46
31403;BME280;18039;52.188;21.024;2023-02-07T10:06:54;79655.19;;;-141.45;85.50
31403;BME280;18039;52.188;21.024;2023-02-07T10:09:28;79655.19;;;-141.45;84.55
31403;BME280;18039;52.188;21.024;2023-02-07T10:22:59;79636.91;;;-141.45;84.49
31403;BME280;18039;52.188;21.024;2023-02-07T10:30:49;79659.25;;;-141.45;84.95
31403;BME280;18039;52.188;21.024;2023-02-07T10:33:24;79665.31;;;-141.45;84.98
31403;BME280;18039;52.188;21.024;2023-02-07T10:36:01;79647.06;;;-141.45;85.36
31403;BME280;18039;52.188;21.024;2023-02-07T10:38:37;79630.84;;;-141.45;84.82
31403;BME280;18039;52.188;21.024;2023-02-07T10:41:14;79622.72;;;-141.45;84.64
31403;BME280;18039;52.188;21.024;2023-02-07T10:43:45;79614.59;;;-141.45;84.52
31403;BME280;18039;52.188;21.024;2023-02-07T10:46:17;79620.69;;;-141.45;84.16
31403;BME280;18039;52.188;21.024;2023-02-07T10:48:46;79616.63;;;-141.45;84.34
31403;BME280;18039;52.188;21.024;2023-02-07T10:51:24;79616.63;;;-141.45;85.26
31403;BME280;18039;52.188;21.024;2023-02-07T10:54:18;79594.31;;;-141.45;83.97
31403;BME280;18039;52.188;21.024;2023-02-07T10:56:52;79594.31;;;-141.45;84.38
31403;BME280;18039;52.188;21.024;2023-02-07T10:59:43;79584.16;;;-141.45;84.15
31403;BME280;18039;52.188;21.024;2023-02-07T11:05:00;79576.06;;;-141.45;84.02
31403;BME280;18039;52.188;21.024;2023-02-07T11:07:28;79578.09;;;-141.45;84.32
31403;BME280;18039;52.188;21.024;2023-02-07T11:10:21;79574.03;;;-141.45;84.61
31403;BME280;18039;52.188;21.024;2023-02-07T11:12:54;79578.09;;;-141.45;83.69
31403;BME280;18039;52.188;21.024;2023-02-07T11:15:28;79586.19;;;-141.45;83.51
31403;BME280;18039;52.188;21.024;2023-02-07T11:17:57;79582.13;;;-141.45;84.65
31403;BME280;18039;52.188;21.024;2023-02-07T11:20:31;79557.78;;;-141.45;85.26
31403;BME280;18039;52.188;21.024;2023-02-07T11:23:04;79545.63;;;-141.45;84.20
31403;BME280;18039;52.188;21.024;2023-02-07T11:25:38;79545.63;;;-141.45;83.32
31403;BME280;18039;52.188;21.024;2023-02-07T11:28:35;79537.50;;;-141.45;83.63
31403;BME280;18039;52.188;21.024;2023-02-07T11:31:07;79533.44;;;-141.45;82.09
31403;BME280;18039;52.188;21.024;2023-02-07T11:33:36;79533.44;;;-141.45;82.75
31403;BME280;18039;52.188;21.024;2023-02-07T11:36:22;79535.47;;;-141.45;82.20
31403;BME280;18039;52.188;21.024;2023-02-07T11:38:56;79513.16;;;-141.45;81.49
31403;BME280;18039;52.188;21.024;2023-02-07T11:41:29;79529.41;;;-141.45;81.87
31403;BME280;18039;52.188;21.024;2023-02-07T11:44:02;79521.28;;;-141.45;82.61
31403;BME280;18039;52.188;21.024;2023-02-07T11:46:44;79517.22;;;-141.45;82.09
31403;BME280;18039;52.188;21.024;2023-02-07T11:49:24;79521.28;;;-141.45;81.63
31403;BME280;18039;52.188;21.024;2023-02-07T11:51:53;79541.56;;;-141.45;82.10
31403;BME280;18039;52.188;21.024;2023-02-07T11:54:21;79509.09;;;-141.45;82.61
31403;BME280;18039;52.188;21.024;2023-02-07T11:56:51;79503.03;;;-141.45;82.11
31403;BME280;18039;52.188;21.024;2023-02-07T11:59:23;79496.94;;;-141.45;82.27
31403;BME280;18039;52.188;21.024;2023-02-07T12:01:54;79484.75;;;-141.45;81.61
31403;BME280;18039;52.188;21.024;2023-02-07T12:04:43;79476.66;;;-141.45;80.41
31403;BME280;18039;52.188;21.024;2023-02-07T12:07:15;79472.59;;;-141.45;80.39
31403;BME280;18039;52.188;21.024;2023-02-07T12:09:52;79464.47;;;-141.45;79.90
31403;BME280;18039;52.188;21.024;2023-02-07T12:15:00;79472.59;;;-141.45;81.03
31403;BME280;18039;52.188;21.024;2023-02-07T12:17:37;79468.53;;;-141.45;81.31
31403;BME280;18039;52.188;21.024;2023-02-07T12:20:15;79444.19;;;-141.45;81.32
31403;BME280;18039;52.188;21.024;2023-02-07T12:22:53;79456.34;;;-141.45;81.11
31403;BME280;18039;52.188;21.024;2023-02-07T12:25:47;79440.13;;;-141.45;80.73
31403;BME280;18039;52.188;21.024;2023-02-07T12:28:36;79464.47;;;-141.45;80.75
31403;BME280;18039;52.188;21.024;2023-02-07T12:31:24;79464.47;;;-141.45;80.90
31403;BME280;18039;52.188;21.024;2023-02-07T12:34:00;79478.66;;;-141.45;80.25
31403;BME280;18039;52.188;21.024;2023-02-07T12:36:35;79488.81;;;-141.45;80.94
31403;BME280;18039;52.188;21.024;2023-02-07T12:39:35;79488.81;;;-141.45;81.79
31403;BME280;18039;52.188;21.024;2023-02-07T12:42:30;79496.94;;;-141.45;81.33
31403;BME280;18039;52.188;21.024;2023-02-07T12:45:01;79492.88;;;-141.45;80.48
31403;BME280;18039;52.188;21.024;2023-02-07T12:47:43;79496.94;;;-141.45;80.88
31403;BME280;18039;52.188;21.024;2023-02-07T12:50:39;79517.22;;;-141.45;81.40
31403;BME280;18039;52.188;21.024;2023-02-07T12:59:12;79521.28;;;-141.45;83.10
31403;BME280;18039;52.188;21.024;2023-02-07T13:01:46;79513.16;;;-141.45;83.23
31403;BME280;18039;52.188;21.024;2023-02-07T13:16:02;79545.63;;;-141.45;82.83
31403;BME280;18039;52.188;21.024;2023-02-07T13:18:45;79537.50;;;-141.45;82.30
31403;BME280;18039;52.188;21.024;2023-02-07T13:21:39;79545.63;;;-141.45;82.36
31403;BME280;18039;52.188;21.024;2023-02-07T13:24:13;79545.63;;;-141.45;82.55
31403;BME280;18039;52.188;21.024;2023-02-07T13:26:45;79529.41;;;-141.45;81.80
31403;BME280;18039;52.188;21.024;2023-02-07T13:29:15;79545.63;;;-141.45;81.98
31403;BME280;18039;52.188;21.024;2023-02-07T13:31:50;79541.56;;;-141.45;81.78
31403;BME280;18039;52.188;21.024;2023-02-07T13:34:23;79533.44;;;-141.45;81.58
31403;BME280;18039;52.188;21.024;2023-02-07T13:36:51;79541.56;;;-141.45;81.59
31403;BME280;18039;52.188;21.024;2023-02-07T13:42:32;79541.56;;;-141.45;81.76
31403;BME280;18039;52.188;21.024;2023-02-07T13:50:57;79549.69;;;-141.45;82.59
31403;BME280;18039;52.188;21.024;2023-02-07T13:53:33;79553.75;;;-141.45;81.96
31403;BME280;18039;52.188;21.024;2023-02-07T13:56:09;79553.75;;;-141.45;82.67
31403;BME280;18039;52.188;21.024;2023-02-07T13:58:58;79553.75;;;-141.45;82.97
31403;BME280;18039;52.188;21.024;2023-02-07T14:01:49;79549.69;;;-141.45;81.99
31403;BME280;18039;52.188;21.024;2023-02-07T14:04:18;79553.75;;;-141.45;82.53
31403;BME280;18039;52.188;21.024;2023-02-07T14:09:29;79561.84;;;-141.45;83.00
31403;BME280;18039;52.188;21.024;2023-02-07T14:12:02;79557.78;;;-141.45;82.91
31403;BME280;18039;52.188;21.024;2023-02-07T14:14:36;79561.84;;;-141.45;82.74
31403;BME280;18039;52.188;21.024;2023-02-07T14:17:10;79569.97;;;-141.45;82.77
31403;BME280;18039;52.188;21.024;2023-02-07T14:27:37;79614.59;;;-141.45;82.93
31403;BME280;18039;52.188;21.024;2023-02-07T14:30:12;79590.25;;;-141.45;83.24
31403;BME280;18039;52.188;21.024;2023-02-07T14:35:32;79596.34;;;-141.45;83.66
31403;BME280;18039;52.188;21.024;2023-02-07T14:40:47;79614.59;;;-141.45;84.42